F/V Mab Fanch — FPDH — position and weather

sailwx.info

Track history (hours):
 
Tides and Currents Weather Stations Pressure Air Temp Water Temp Dewpoint Dewpoint Depression Visibility Wind Speed Wind Dir Waves Ship Positions

F/V Mab Fanch

Last reported at 2017-Nov-17 16:17 UTC. Time now 2017-Nov-21 08:23 UTC.
Position N 47°47' W 004°18'.

Length 15 m.

Type: Fishing. MMSI: 228219000.

Date/timePositionNaut miles runAvg speedWind from/ knotsBaromVisibWave heightAir tempDewpointWater temp
2017-Nov-17 16:17N 47°47' W 004°18'2 8.5
2017-Nov-17 16:00N 47°45' W 004°17'4 7.1
2017-Nov-17 15:28N 47°42' W 004°14'1 2.0
2017-Nov-17 14:57N 47°41' W 004°15'2 3.3
2017-Nov-17 14:28N 47°41' W 004°18'2 3.3
2017-Nov-17 13:57N 47°41' W 004°20'2 3.3
2017-Nov-17 13:29N 47°42' W 004°23'2 2.6
2017-Nov-17 12:49N 47°41' W 004°25'1 2.5
2017-Nov-17 12:27N 47°42' W 004°24'2 3.3
2017-Nov-17 11:57N 47°42' W 004°21'1 1.8
2017-Nov-17 11:30N 47°43' W 004°21'2 3.5
2017-Nov-17 10:58N 47°42' W 004°24'2 3.5
2017-Nov-17 10:30N 47°41' W 004°26'1 1.9
2017-Nov-17 09:59N 47°42' W 004°25'2 3.3
2017-Nov-17 09:27N 47°42' W 004°23'1 2.6
2017-Nov-17 08:56N 47°43' W 004°21'1 2.1
2017-Nov-17 08:30N 47°42' W 004°22'2 3.2
2017-Nov-17 07:59N 47°41' W 004°24'2 3.2
2017-Nov-17 07:30N 47°41' W 004°26'1 1.9
2017-Nov-17 06:50N 47°42' W 004°25'2 3.3
2017-Nov-17 06:17N 47°42' W 004°23'1 3.4
2017-Nov-17 05:58N 47°42' W 004°21'2 3.5
2017-Nov-17 05:24N 47°44' W 004°19'3 7.4
2017-Nov-17 05:00N 47°46' W 004°18'1 0.1
2017-Nov-16 16:32N 47°48' W 004°17'1 3.1
2017-Nov-16 16:18N 47°47' W 004°18'2 8.2
2017-Nov-16 16:00N 47°45' W 004°20'4 7.7
2017-Nov-16 15:30N 47°42' W 004°24'1 1.5
2017-Nov-16 14:51N 47°42' W 004°23'1 3.1
2017-Nov-16 14:28N 47°41' W 004°22'1 2.2
2017-Nov-16 14:00N 47°40' W 004°22'2 3.5
2017-Nov-16 13:29N 47°40' W 004°25'2 0.7
2017-Nov-16 11:15N 47°40' W 004°22'1 3.4
2017-Nov-16 10:59N 47°41' W 004°21'1 2.6
2017-Nov-16 10:28N 47°42' W 004°20'1 3.0
2017-Nov-16 09:59N 47°42' W 004°22'2 3.3
2017-Nov-16 09:30N 47°42' W 004°24'0 0.6
2017-Nov-16 08:53N 47°41' W 004°24'1 3.2
2017-Nov-16 08:30N 47°41' W 004°22'1 2.4
2017-Nov-16 07:55N 47°40' W 004°24'1 3.0
2017-Nov-16 07:26N 47°40' W 004°26'4 2.8
2017-Nov-16 06:10N 47°42' W 004°22'1 3.5
2017-Nov-16 06:00N 47°42' W 004°21'2 3.5
2017-Nov-16 05:30N 47°43' W 004°19'4 7.0
2017-Nov-16 04:58N 47°47' W 004°18'1 0.1
2017-Nov-15 16:06N 47°47' W 004°18'1 7.7
2017-Nov-15 15:56N 47°45' W 004°19'4 7.3
2017-Nov-15 15:27N 47°43' W 004°22'2 3.0
2017-Nov-15 14:58N 47°41' W 004°23'2 3.0
2017-Nov-15 14:25N 47°40' W 004°25'2 3.4
2017-Nov-15 13:58N 47°39' W 004°27'2 3.5
2017-Nov-15 13:30N 47°40' W 004°29'2 3.5
2017-Nov-15 12:59N 47°40' W 004°32'0 0.2
2017-Nov-15 12:13N 47°40' W 004°32'1 3.1
2017-Nov-15 11:59N 47°40' W 004°31'4 3.1
2017-Nov-15 10:44N 47°39' W 004°25'1 3.2
2017-Nov-15 10:29N 47°39' W 004°24'2 3.3
2017-Nov-15 10:00N 47°38' W 004°22'2 3.3
2017-Nov-15 09:31N 47°38' W 004°19'0 1.0
2017-Nov-15 09:01N 47°37' W 004°19'2 3.2
2017-Nov-15 08:29N 47°38' W 004°21'2 3.1
2017-Nov-15 07:51N 47°39' W 004°24'2 3.1
2017-Nov-15 07:21N 47°40' W 004°25'1 3.1
2017-Nov-15 06:56N 47°41' W 004°25'1 3.2
2017-Nov-15 06:30N 47°42' W 004°23'2 3.2
2017-Nov-15 05:58N 47°42' W 004°21'2 3.4
2017-Nov-15 05:29N 47°43' W 004°19'3 7.3
2017-Nov-15 05:01N 47°47' W 004°18'1 0.0
2017-Nov-14 16:17N 47°47' W 004°17'2 8.0
2017-Nov-14 16:00N 47°46' W 004°19'5 8.2
2017-Nov-14 15:25N 47°41' W 004°23'2 3.5
2017-Nov-14 14:57N 47°40' W 004°25'2 3.5
2017-Nov-14 14:27N 47°40' W 004°27'2 3.6
2017-Nov-14 13:58N 47°40' W 004°30'5 3.8
2017-Nov-14 12:41N 47°40' W 004°37'1 2.1
2017-Nov-14 12:24N 47°40' W 004°38'1 3.6
2017-Nov-14 12:00N 47°40' W 004°40'2 2.3
2017-Nov-14 11:03N 47°42' W 004°42'0 3.1
2017-Nov-14 11:00N 47°42' W 004°42'2 2.3
2017-Nov-14 10:09N 47°41' W 004°39'1 3.4
2017-Nov-14 09:59N 47°41' W 004°39'1 1.5
2017-Nov-14 09:18N 47°40' W 004°40'1 3.0
2017-Nov-14 08:49N 47°41' W 004°42'2 3.1
2017-Nov-14 08:15N 47°41' W 004°39'5 3.1
2017-Nov-14 06:38N 47°41' W 004°32'5 5.6
2017-Nov-14 05:44N 47°43' W 004°25'1 4.9
2017-Nov-14 05:30N 47°44' W 004°24'5 8.8
2017-Nov-14 04:56N 47°47' W 004°18'  
2017-Nov-10 16:14N 47°47' W 004°17'2 8.2
2017-Nov-10 16:00N 47°45' W 004°17'4 7.1
2017-Nov-10 15:30N 47°42' W 004°17'2 2.7
2017-Nov-10 14:56N 47°40' W 004°17'1 3.0
2017-Nov-10 14:30N 47°39' W 004°16'2 2.9
2017-Nov-10 13:58N 47°37' W 004°16'1 2.7
2017-Nov-10 13:30N 47°37' W 004°14'3 1.5
2017-Nov-10 11:35N 47°36' W 004°18'1 0.4
2017-Nov-10 07:47N 47°37' W 004°19'2 3.4
2017-Nov-10 07:04N 47°39' W 004°22'0 3.4
2017-Nov-10 06:59N 47°39' W 004°22'2 3.2
2017-Nov-10 06:29N 47°40' W 004°23'2 4.2
2017-Nov-10 05:57N 47°43' W 004°23'3 7.2
2017-Nov-10 05:30N 47°45' W 004°20'3 0.2
2017-Nov-09 16:23N 47°47' W 004°18'3 8.0
2017-Nov-09 16:00N 47°46' W 004°22'5 8.7
2017-Nov-09 15:28N 47°49' W 004°28'4 8.4
2017-Nov-09 15:00N 47°51' W 004°33'1 2.4
2017-Nov-09 14:28N 47°52' W 004°34'1 2.0
2017-Nov-09 13:56N 47°53' W 004°34'2 3.1
2017-Nov-09 13:22N 47°52' W 004°32'1 2.9
2017-Nov-09 13:00N 47°51' W 004°32'1 2.4
2017-Nov-09 12:27N 47°50' W 004°34'2 3.3
2017-Nov-09 11:59N 47°51' W 004°36'1 2.6
2017-Nov-09 11:30N 47°52' W 004°36'2 3.0
2017-Nov-09 10:56N 47°53' W 004°34'1 3.1
2017-Nov-09 10:30N 47°52' W 004°32'2 3.1
2017-Nov-09 10:00N 47°51' W 004°31'1 1.7
2017-Nov-09 09:28N 47°50' W 004°32'2 3.6
2017-Nov-09 08:57N 47°51' W 004°34'2 3.5
2017-Nov-09 08:31N 47°52' W 004°35'1 2.7
2017-Nov-09 07:59N 47°53' W 004°34'2 2.8
2017-Nov-09 07:27N 47°52' W 004°32'1 2.9
2017-Nov-09 07:01N 47°51' W 004°31'2 3.1
2017-Nov-09 06:30N 47°50' W 004°29'2 4.4
2017-Nov-09 05:57N 47°48' W 004°26'4 8.1
2017-Nov-09 05:30N 47°46' W 004°22'3 0.2
2017-Nov-08 16:12N 47°47' W 004°17'2 8.1
2017-Nov-08 16:00N 47°46' W 004°18'5 7.6
2017-Nov-08 15:18N 47°41' W 004°20'2 5.4
2017-Nov-08 15:00N 47°40' W 004°22'2 2.2
2017-Nov-08 14:10N 47°39' W 004°24'3 3.1
2017-Nov-08 13:22N 47°37' W 004°21'1 3.1
2017-Nov-08 13:00N 47°37' W 004°19'2 0.5
2017-Nov-08 08:44N 47°38' W 004°17'1 3.4
2017-Nov-08 08:23N 47°39' W 004°18'1 3.2
2017-Nov-08 07:59N 47°40' W 004°19'2 3.5
2017-Nov-08 07:30N 47°41' W 004°19'2 2.6
2017-Nov-08 06:42N 47°42' W 004°16'1 2.7
2017-Nov-08 06:21N 47°42' W 004°15'1 2.8
2017-Nov-08 06:01N 47°41' W 004°13'4 8.0
2017-Nov-08 05:30N 47°45' W 004°17'  
Track history (hours):
 
Tides and Currents Weather Stations Pressure Air Temp Water Temp Dewpoint Dewpoint Depression Visibility Wind Speed Wind Dir Waves Ship Positions

F/V Mab Fanch

Last reported at 2017-Nov-17 16:17 UTC. Time now 2017-Nov-21 08:23 UTC.
Position N 47°47' W 004°18'.

Length 15 m.

Type: Fishing. MMSI: 228219000.

Date/timePositionNaut miles runAvg speedWind from/ knotsBaromVisibWave heightAir tempDewpointWater temp
2017-Nov-17 16:17N 47°47' W 004°18'2 8.5
2017-Nov-17 16:00N 47°45' W 004°17'4 7.1
2017-Nov-17 15:28N 47°42' W 004°14'1 2.0
2017-Nov-17 14:57N 47°41' W 004°15'2 3.3
2017-Nov-17 14:28N 47°41' W 004°18'2 3.3
2017-Nov-17 13:57N 47°41' W 004°20'2 3.3
2017-Nov-17 13:29N 47°42' W 004°23'2 2.6
2017-Nov-17 12:49N 47°41' W 004°25'1 2.5
2017-Nov-17 12:27N 47°42' W 004°24'2 3.3
2017-Nov-17 11:57N 47°42' W 004°21'1 1.8
2017-Nov-17 11:30N 47°43' W 004°21'2 3.5
2017-Nov-17 10:58N 47°42' W 004°24'2 3.5
2017-Nov-17 10:30N 47°41' W 004°26'1 1.9
2017-Nov-17 09:59N 47°42' W 004°25'2 3.3
2017-Nov-17 09:27N 47°42' W 004°23'1 2.6
2017-Nov-17 08:56N 47°43' W 004°21'1 2.1
2017-Nov-17 08:30N 47°42' W 004°22'2 3.2
2017-Nov-17 07:59N 47°41' W 004°24'2 3.2
2017-Nov-17 07:30N 47°41' W 004°26'1 1.9
2017-Nov-17 06:50N 47°42' W 004°25'2 3.3
2017-Nov-17 06:17N 47°42' W 004°23'1 3.4
2017-Nov-17 05:58N 47°42' W 004°21'2 3.5
2017-Nov-17 05:24N 47°44' W 004°19'3 7.4
2017-Nov-17 05:00N 47°46' W 004°18'1 0.1
2017-Nov-16 16:32N 47°48' W 004°17'1 3.1
2017-Nov-16 16:18N 47°47' W 004°18'2 8.2
2017-Nov-16 16:00N 47°45' W 004°20'4 7.7
2017-Nov-16 15:30N 47°42' W 004°24'1 1.5
2017-Nov-16 14:51N 47°42' W 004°23'1 3.1
2017-Nov-16 14:28N 47°41' W 004°22'1 2.2
2017-Nov-16 14:00N 47°40' W 004°22'2 3.5
2017-Nov-16 13:29N 47°40' W 004°25'2 0.7
2017-Nov-16 11:15N 47°40' W 004°22'1 3.4
2017-Nov-16 10:59N 47°41' W 004°21'1 2.6
2017-Nov-16 10:28N 47°42' W 004°20'1 3.0
2017-Nov-16 09:59N 47°42' W 004°22'2 3.3
2017-Nov-16 09:30N 47°42' W 004°24'0 0.6
2017-Nov-16 08:53N 47°41' W 004°24'1 3.2
2017-Nov-16 08:30N 47°41' W 004°22'1 2.4
2017-Nov-16 07:55N 47°40' W 004°24'1 3.0
2017-Nov-16 07:26N 47°40' W 004°26'4 2.8
2017-Nov-16 06:10N 47°42' W 004°22'1 3.5
2017-Nov-16 06:00N 47°42' W 004°21'2 3.5
2017-Nov-16 05:30N 47°43' W 004°19'4 7.0
2017-Nov-16 04:58N 47°47' W 004°18'1 0.1
2017-Nov-15 16:06N 47°47' W 004°18'1 7.7
2017-Nov-15 15:56N 47°45' W 004°19'4 7.3
2017-Nov-15 15:27N 47°43' W 004°22'2 3.0
2017-Nov-15 14:58N 47°41' W 004°23'2 3.0
2017-Nov-15 14:25N 47°40' W 004°25'2 3.4
2017-Nov-15 13:58N 47°39' W 004°27'2 3.5
2017-Nov-15 13:30N 47°40' W 004°29'2 3.5
2017-Nov-15 12:59N 47°40' W 004°32'0 0.2
2017-Nov-15 12:13N 47°40' W 004°32'1 3.1
2017-Nov-15 11:59N 47°40' W 004°31'4 3.1
2017-Nov-15 10:44N 47°39' W 004°25'1 3.2
2017-Nov-15 10:29N 47°39' W 004°24'2 3.3
2017-Nov-15 10:00N 47°38' W 004°22'2 3.3
2017-Nov-15 09:31N 47°38' W 004°19'0 1.0
2017-Nov-15 09:01N 47°37' W 004°19'2 3.2
2017-Nov-15 08:29N 47°38' W 004°21'2 3.1
2017-Nov-15 07:51N 47°39' W 004°24'2 3.1
2017-Nov-15 07:21N 47°40' W 004°25'1 3.1
2017-Nov-15 06:56N 47°41' W 004°25'1 3.2
2017-Nov-15 06:30N 47°42' W 004°23'2 3.2
2017-Nov-15 05:58N 47°42' W 004°21'2 3.4
2017-Nov-15 05:29N 47°43' W 004°19'3 7.3
2017-Nov-15 05:01N 47°47' W 004°18'1 0.0
2017-Nov-14 16:17N 47°47' W 004°17'2 8.0
2017-Nov-14 16:00N 47°46' W 004°19'5 8.2
2017-Nov-14 15:25N 47°41' W 004°23'2 3.5
2017-Nov-14 14:57N 47°40' W 004°25'2 3.5
2017-Nov-14 14:27N 47°40' W 004°27'2 3.6
2017-Nov-14 13:58N 47°40' W 004°30'5 3.8
2017-Nov-14 12:41N 47°40' W 004°37'1 2.1
2017-Nov-14 12:24N 47°40' W 004°38'1 3.6
2017-Nov-14 12:00N 47°40' W 004°40'2 2.3
2017-Nov-14 11:03N 47°42' W 004°42'0 3.1
2017-Nov-14 11:00N 47°42' W 004°42'2 2.3
2017-Nov-14 10:09N 47°41' W 004°39'1 3.4
2017-Nov-14 09:59N 47°41' W 004°39'1 1.5
2017-Nov-14 09:18N 47°40' W 004°40'1 3.0
2017-Nov-14 08:49N 47°41' W 004°42'2 3.1
2017-Nov-14 08:15N 47°41' W 004°39'5 3.1
2017-Nov-14 06:38N 47°41' W 004°32'5 5.6
2017-Nov-14 05:44N 47°43' W 004°25'1 4.9
2017-Nov-14 05:30N 47°44' W 004°24'5 8.8
2017-Nov-14 04:56N 47°47' W 004°18'  
2017-Nov-10 16:14N 47°47' W 004°17'2 8.2
2017-Nov-10 16:00N 47°45' W 004°17'4 7.1
2017-Nov-10 15:30N 47°42' W 004°17'2 2.7
2017-Nov-10 14:56N 47°40' W 004°17'1 3.0
2017-Nov-10 14:30N 47°39' W 004°16'2 2.9
2017-Nov-10 13:58N 47°37' W 004°16'1 2.7
2017-Nov-10 13:30N 47°37' W 004°14'3 1.5
2017-Nov-10 11:35N 47°36' W 004°18'1 0.4
2017-Nov-10 07:47N 47°37' W 004°19'2 3.4
2017-Nov-10 07:04N 47°39' W 004°22'0 3.4
2017-Nov-10 06:59N 47°39' W 004°22'2 3.2
2017-Nov-10 06:29N 47°40' W 004°23'2 4.2
2017-Nov-10 05:57N 47°43' W 004°23'3 7.2
2017-Nov-10 05:30N 47°45' W 004°20'3 0.2
2017-Nov-09 16:23N 47°47' W 004°18'3 8.0
2017-Nov-09 16:00N 47°46' W 004°22'5 8.7
2017-Nov-09 15:28N 47°49' W 004°28'4 8.4
2017-Nov-09 15:00N 47°51' W 004°33'1 2.4
2017-Nov-09 14:28N 47°52' W 004°34'1 2.0
2017-Nov-09 13:56N 47°53' W 004°34'2 3.1
2017-Nov-09 13:22N 47°52' W 004°32'1 2.9
2017-Nov-09 13:00N 47°51' W 004°32'1 2.4
2017-Nov-09 12:27N 47°50' W 004°34'2 3.3
2017-Nov-09 11:59N 47°51' W 004°36'1 2.6
2017-Nov-09 11:30N 47°52' W 004°36'2 3.0
2017-Nov-09 10:56N 47°53' W 004°34'1 3.1
2017-Nov-09 10:30N 47°52' W 004°32'2 3.1
2017-Nov-09 10:00N 47°51' W 004°31'1 1.7
2017-Nov-09 09:28N 47°50' W 004°32'2 3.6
2017-Nov-09 08:57N 47°51' W 004°34'2 3.5
2017-Nov-09 08:31N 47°52' W 004°35'1 2.7
2017-Nov-09 07:59N 47°53' W 004°34'2 2.8
2017-Nov-09 07:27N 47°52' W 004°32'1 2.9
2017-Nov-09 07:01N 47°51' W 004°31'2 3.1
2017-Nov-09 06:30N 47°50' W 004°29'2 4.4
2017-Nov-09 05:57N 47°48' W 004°26'4 8.1
2017-Nov-09 05:30N 47°46' W 004°22'3 0.2
2017-Nov-08 16:12N 47°47' W 004°17'2 8.1
2017-Nov-08 16:00N 47°46' W 004°18'5 7.6
2017-Nov-08 15:18N 47°41' W 004°20'2 5.4
2017-Nov-08 15:00N 47°40' W 004°22'2 2.2
2017-Nov-08 14:10N 47°39' W 004°24'3 3.1
2017-Nov-08 13:22N 47°37' W 004°21'1 3.1
2017-Nov-08 13:00N 47°37' W 004°19'2 0.5
2017-Nov-08 08:44N 47°38' W 004°17'1 3.4
2017-Nov-08 08:23N 47°39' W 004°18'1 3.2
2017-Nov-08 07:59N 47°40' W 004°19'2 3.5
2017-Nov-08 07:30N 47°41' W 004°19'2 2.6
2017-Nov-08 06:42N 47°42' W 004°16'1 2.7
2017-Nov-08 06:21N 47°42' W 004°15'1 2.8
2017-Nov-08 06:01N 47°41' W 004°13'4 8.0
2017-Nov-08 05:30N 47°45' W 004°17'  

Dump ship's entire track history